createdAt,value
2017-08-15T00:00:43.622Z,18.12
2017-08-15T00:03:11.093Z,18.18
2017-08-15T00:05:38.541Z,18.16
2017-08-15T00:08:05.989Z,17.99
2017-08-15T00:10:33.456Z,18.01
2017-08-15T00:13:00.894Z,18.13
2017-08-15T00:15:28.386Z,18.36
2017-08-15T00:17:55.820Z,18.44
2017-08-15T00:20:23.258Z,18.40
2017-08-15T00:22:50.721Z,18.26
2017-08-15T00:25:18.193Z,18.20
2017-08-15T00:27:45.672Z,18.07
2017-08-15T00:30:13.111Z,18.03
2017-08-15T00:32:40.579Z,17.90
2017-08-15T00:35:08.024Z,17.87
2017-08-15T00:37:35.476Z,17.63
2017-08-15T00:40:02.950Z,17.71
2017-08-15T00:42:30.392Z,17.59
2017-08-15T00:44:57.844Z,17.58
2017-08-15T00:47:25.334Z,17.40
2017-08-15T00:49:52.784Z,17.42
2017-08-15T00:52:20.234Z,17.51
2017-08-15T00:54:47.701Z,17.48
2017-08-15T00:57:15.171Z,17.28
2017-08-15T00:59:42.616Z,17.35
2017-08-15T01:02:10.080Z,17.30
2017-08-15T01:04:37.550Z,17.29
2017-08-15T01:07:05.002Z,17.32
2017-08-15T01:09:32.470Z,17.27
2017-08-15T01:11:59.921Z,17.23
2017-08-15T01:14:27.392Z,17.24
2017-08-15T01:16:54.842Z,17.36
2017-08-15T01:19:22.292Z,17.40
2017-08-15T01:21:49.752Z,17.37
2017-08-15T01:24:17.215Z,17.42
2017-08-15T01:26:44.653Z,17.37
2017-08-15T01:29:12.094Z,17.24
2017-08-15T01:31:39.559Z,17.01
2017-08-15T01:34:07.005Z,17.22
2017-08-15T01:36:34.485Z,17.22
2017-08-15T01:39:01.940Z,17.12
2017-08-15T01:41:29.408Z,17.12
2017-08-15T01:43:56.909Z,16.96
2017-08-15T01:46:24.360Z,17.03
2017-08-15T01:48:51.812Z,17.06
2017-08-15T01:51:19.283Z,16.90
2017-08-15T01:53:46.760Z,16.98
2017-08-15T01:56:14.218Z,16.98
2017-08-15T01:58:41.738Z,16.95
2017-08-15T02:01:09.213Z,16.90
2017-08-15T02:03:36.652Z,16.91
2017-08-15T02:06:04.101Z,16.91
2017-08-15T02:08:31.567Z,16.89
2017-08-15T02:10:59.017Z,17.04
2017-08-15T02:13:26.481Z,16.91
2017-08-15T02:15:53.925Z,16.90
2017-08-15T02:18:21.407Z,16.91
2017-08-15T02:20:48.855Z,16.88
2017-08-15T02:23:16.297Z,16.73
2017-08-15T02:25:43.780Z,16.75
2017-08-15T02:28:11.243Z,16.64
2017-08-15T02:30:38.707Z,16.73
2017-08-15T02:33:06.153Z,16.86
2017-08-15T02:35:33.601Z,16.71
2017-08-15T02:38:01.069Z,16.61
2017-08-15T02:40:28.521Z,16.69
2017-08-15T02:42:56.001Z,16.61
2017-08-15T02:45:23.488Z,16.42
2017-08-15T02:47:50.932Z,16.47
2017-08-15T02:50:18.409Z,16.50
2017-08-15T02:52:45.848Z,16.38
2017-08-15T02:55:13.321Z,16.48
2017-08-15T02:57:40.764Z,16.37
2017-08-15T03:00:08.258Z,16.32
2017-08-15T03:02:35.706Z,16.39
2017-08-15T03:05:03.153Z,16.37
2017-08-15T03:07:30.637Z,16.22
2017-08-15T03:09:58.081Z,16.25
2017-08-15T03:12:25.528Z,16.32
2017-08-15T03:14:52.998Z,16.25
2017-08-15T03:17:20.441Z,16.16
2017-08-15T03:19:47.917Z,16.06
2017-08-15T03:22:15.371Z,16.09
2017-08-15T03:24:43.794Z,16.08
2017-08-15T03:27:11.265Z,16.11
2017-08-15T03:29:38.704Z,16.05
2017-08-15T03:32:06.146Z,16.01
2017-08-15T03:34:33.620Z,15.95
2017-08-15T03:37:01.160Z,15.91
2017-08-15T03:39:28.628Z,15.82
2017-08-15T03:41:56.072Z,16.05
2017-08-15T03:44:23.520Z,16.02
2017-08-15T03:46:50.989Z,15.96
2017-08-15T03:49:18.460Z,16.00
2017-08-15T03:51:45.913Z,15.91
2017-08-15T03:54:13.388Z,15.66
2017-08-15T03:56:40.831Z,15.90
2017-08-15T03:59:08.284Z,15.81
2017-08-15T04:01:35.742Z,15.86
2017-08-15T04:04:03.197Z,15.96
2017-08-15T04:06:30.640Z,15.98
2017-08-15T04:08:58.117Z,15.90
2017-08-15T04:11:25.577Z,15.92
2017-08-15T04:13:53.049Z,15.76
2017-08-15T04:16:20.504Z,15.74
2017-08-15T04:18:47.966Z,15.73
2017-08-15T04:21:15.417Z,15.83
2017-08-15T04:23:42.885Z,15.72
2017-08-15T04:26:10.359Z,15.86
2017-08-15T04:28:37.804Z,15.86
2017-08-15T04:31:05.272Z,15.99
2017-08-15T04:33:32.711Z,16.14
2017-08-15T04:36:00.184Z,15.92
2017-08-15T04:38:27.658Z,15.97
2017-08-15T04:40:55.112Z,16.13
2017-08-15T04:43:22.581Z,16.21
2017-08-15T04:45:50.024Z,16.09
2017-08-15T04:48:17.489Z,16.38
2017-08-15T04:50:44.931Z,16.41
2017-08-15T04:53:12.402Z,16.47
2017-08-15T04:55:39.856Z,16.55
2017-08-15T04:58:07.301Z,16.55
2017-08-15T05:00:34.780Z,16.66
2017-08-15T05:03:02.233Z,16.69
2017-08-15T05:05:29.681Z,16.83
2017-08-15T05:07:57.157Z,16.87
2017-08-15T05:10:24.608Z,16.89
2017-08-15T05:12:52.061Z,17.01
2017-08-15T05:15:19.522Z,16.99
2017-08-15T05:17:46.978Z,16.99
2017-08-15T05:20:14.452Z,17.00
2017-08-15T05:22:41.898Z,16.98
2017-08-15T05:25:09.392Z,17.21
2017-08-15T05:27:36.837Z,17.21
2017-08-15T05:30:04.293Z,17.22
2017-08-15T05:32:31.773Z,17.31
2017-08-15T05:34:59.216Z,17.84
2017-08-15T05:37:26.697Z,17.92
2017-08-15T05:39:54.153Z,18.10
2017-08-15T05:42:21.622Z,18.51
2017-08-15T05:44:49.079Z,18.28
2017-08-15T05:47:16.537Z,18.06
2017-08-15T05:49:44.002Z,18.24
2017-08-15T05:52:11.446Z,18.62
2017-08-15T05:54:38.917Z,18.65
2017-08-15T05:57:06.366Z,18.69
2017-08-15T05:59:33.840Z,18.87
2017-08-15T06:02:01.310Z,19.03
2017-08-15T06:04:28.762Z,19.08
2017-08-15T06:06:56.225Z,19.24
2017-08-15T06:09:23.698Z,19.16
2017-08-15T06:11:51.170Z,19.42
2017-08-15T06:14:18.661Z,19.39
2017-08-15T06:16:46.108Z,19.00
2017-08-15T06:19:13.562Z,19.07
2017-08-15T06:21:41.053Z,19.13
2017-08-15T06:24:08.495Z,19.47
2017-08-15T06:26:35.937Z,19.61
2017-08-15T06:29:03.404Z,19.38
2017-08-15T06:31:30.847Z,19.52
2017-08-15T06:33:58.313Z,19.57
2017-08-15T06:36:25.769Z,19.92
2017-08-15T06:38:53.242Z,20.07
2017-08-15T06:41:20.705Z,20.36
2017-08-15T06:43:48.147Z,20.08
2017-08-15T06:46:15.628Z,19.94
2017-08-15T06:48:43.077Z,20.01
2017-08-15T06:51:10.546Z,20.02
2017-08-15T06:53:37.988Z,20.01
2017-08-15T06:56:05.466Z,20.02
2017-08-15T06:58:32.918Z,19.96
2017-08-15T07:01:00.380Z,20.02
2017-08-15T07:03:27.832Z,20.15
2017-08-15T07:05:55.326Z,20.22
2017-08-15T07:08:22.796Z,20.29
2017-08-15T07:10:50.248Z,20.70
2017-08-15T07:13:17.709Z,20.73
2017-08-15T07:15:45.193Z,20.58
2017-08-15T07:18:12.632Z,20.78
2017-08-15T07:20:40.088Z,20.88
2017-08-15T07:23:07.557Z,20.95
2017-08-15T07:25:35.008Z,21.17
2017-08-15T07:28:02.481Z,21.17
2017-08-15T07:30:29.942Z,20.97
2017-08-15T07:32:57.418Z,21.14
2017-08-15T07:35:24.858Z,21.31
2017-08-15T07:37:52.340Z,21.52
2017-08-15T07:40:19.792Z,21.64
2017-08-15T07:42:47.245Z,21.57
2017-08-15T07:45:14.710Z,21.93
2017-08-15T07:47:42.177Z,21.91
2017-08-15T07:50:09.620Z,22.12
2017-08-15T07:52:37.072Z,22.10
2017-08-15T07:55:04.536Z,22.10
2017-08-15T07:57:31.992Z,21.94
2017-08-15T07:59:59.454Z,21.68
2017-08-15T08:02:26.909Z,21.81
2017-08-15T08:04:54.355Z,22.28
2017-08-15T08:07:21.822Z,22.19
2017-08-15T08:09:49.272Z,22.41
2017-08-15T08:12:16.744Z,22.34
2017-08-15T08:14:44.201Z,22.29
2017-08-15T08:17:11.675Z,22.32
2017-08-15T08:19:39.142Z,22.30
2017-08-15T08:22:06.585Z,22.53
2017-08-15T08:24:34.054Z,22.20
2017-08-15T08:27:01.522Z,22.64
2017-08-15T08:29:29.008Z,22.98
2017-08-15T08:31:56.457Z,22.77
2017-08-15T08:34:23.920Z,22.71
2017-08-15T08:36:51.357Z,23.11
2017-08-15T08:39:18.842Z,23.28
2017-08-15T08:41:46.293Z,23.52
2017-08-15T08:44:13.753Z,22.94
2017-08-15T08:46:41.226Z,23.34
2017-08-15T08:49:08.671Z,23.75
2017-08-15T08:51:36.127Z,23.87
2017-08-15T08:54:03.599Z,23.77
2017-08-15T08:56:31.051Z,24.25
2017-08-15T08:58:58.509Z,23.88
2017-08-15T09:01:25.972Z,23.73
2017-08-15T09:03:53.409Z,23.61
2017-08-15T09:06:20.874Z,24.04
2017-08-15T09:08:48.323Z,23.92
2017-08-15T09:11:15.789Z,23.69
2017-08-15T09:13:43.263Z,24.29
2017-08-15T09:16:10.709Z,24.31
2017-08-15T09:18:38.265Z,24.04
2017-08-15T09:21:05.733Z,24.49
2017-08-15T09:23:33.195Z,24.70
2017-08-15T09:26:00.661Z,24.16
2017-08-15T09:28:28.106Z,24.67
2017-08-15T09:30:55.549Z,24.85
2017-08-15T09:33:23.020Z,24.89
2017-08-15T09:35:50.493Z,24.57
2017-08-15T09:38:17.957Z,24.62
2017-08-15T09:40:45.405Z,24.23
2017-08-15T09:43:12.878Z,24.67
2017-08-15T09:45:40.349Z,25.17
2017-08-15T09:48:07.801Z,25.34
2017-08-15T09:50:35.264Z,25.73
2017-08-15T09:53:03.586Z,25.38
2017-08-15T09:55:31.061Z,25.71
2017-08-15T09:57:58.521Z,25.49
2017-08-15T10:00:25.965Z,25.26
2017-08-15T10:02:53.438Z,25.17
2017-08-15T10:05:20.888Z,25.66
2017-08-15T10:07:49.775Z,25.90
2017-08-15T10:10:17.241Z,25.89
2017-08-15T10:12:44.740Z,25.18
2017-08-15T10:15:12.193Z,25.86
2017-08-15T10:17:39.664Z,25.24
2017-08-15T10:20:07.108Z,25.67
2017-08-15T10:22:34.574Z,25.95
2017-08-15T10:25:02.045Z,26.34
2017-08-15T10:27:29.531Z,26.60
2017-08-15T10:29:56.974Z,26.73
2017-08-15T10:32:24.417Z,27.17
2017-08-15T10:34:51.885Z,26.83
2017-08-15T10:37:19.365Z,27.15
2017-08-15T10:39:46.827Z,27.04
2017-08-15T10:42:14.299Z,27.96
2017-08-15T10:44:41.750Z,27.13
2017-08-15T10:47:09.191Z,27.00
2017-08-15T10:49:36.657Z,27.48
2017-08-15T10:52:04.133Z,27.64
2017-08-15T10:54:31.581Z,27.64
2017-08-15T10:56:59.052Z,27.75
2017-08-15T10:59:26.505Z,27.80
2017-08-15T11:01:53.985Z,27.92
2017-08-15T11:04:21.461Z,28.08
2017-08-15T11:06:48.933Z,28.01
2017-08-15T11:09:16.372Z,28.08
2017-08-15T11:11:43.805Z,28.37
2017-08-15T11:14:11.275Z,28.59
2017-08-15T11:16:38.731Z,27.91
2017-08-15T11:19:06.189Z,28.08
2017-08-15T11:21:33.656Z,28.76
2017-08-15T11:24:01.102Z,28.45
2017-08-15T11:26:28.574Z,28.69
2017-08-15T11:28:56.045Z,28.36
2017-08-15T11:31:23.489Z,29.03
2017-08-15T11:33:50.977Z,29.26
2017-08-15T11:36:18.441Z,28.59
2017-08-15T11:38:45.889Z,28.84
2017-08-15T11:41:13.365Z,29.13
2017-08-15T11:43:40.863Z,28.89
2017-08-15T11:46:08.312Z,29.78
2017-08-15T11:48:35.754Z,29.54
2017-08-15T11:51:03.235Z,29.49
2017-08-15T11:53:30.681Z,30.42
2017-08-15T11:55:58.119Z,30.76
2017-08-15T11:58:25.583Z,31.18
2017-08-15T12:00:53.050Z,31.31
2017-08-15T12:03:20.492Z,30.64
2017-08-15T12:05:47.962Z,31.05
2017-08-15T12:08:15.406Z,33.14
2017-08-15T12:10:42.853Z,32.87
2017-08-15T12:13:10.324Z,32.93
2017-08-15T12:15:37.769Z,35.43
2017-08-15T12:18:05.232Z,35.33
2017-08-15T12:20:32.709Z,35.45
2017-08-15T12:23:00.156Z,35.51
2017-08-15T12:25:27.628Z,35.93
2017-08-15T12:27:55.092Z,34.57
2017-08-15T12:30:22.561Z,34.23
2017-08-15T12:32:50.010Z,35.20
2017-08-15T12:35:17.477Z,35.26
2017-08-15T12:37:44.950Z,35.65
2017-08-15T12:40:12.404Z,36.47
2017-08-15T12:42:39.897Z,33.50
2017-08-15T12:45:07.341Z,33.72
2017-08-15T12:47:34.790Z,33.87
2017-08-15T12:50:02.271Z,34.59
2017-08-15T12:52:29.732Z,32.38
2017-08-15T12:54:57.201Z,32.25
2017-08-15T12:57:24.683Z,32.64
2017-08-15T12:59:52.127Z,34.44
2017-08-15T13:02:19.593Z,35.32
2017-08-15T13:04:47.049Z,37.19
2017-08-15T13:07:14.525Z,36.80
2017-08-15T13:09:41.981Z,35.69
2017-08-15T13:12:09.433Z,34.79
2017-08-15T13:14:36.901Z,35.41
2017-08-15T13:17:04.374Z,35.19
2017-08-15T13:19:31.839Z,34.70
2017-08-15T13:21:59.288Z,37.52
2017-08-15T13:24:26.752Z,38.08
2017-08-15T13:26:54.477Z,38.47
2017-08-15T13:29:21.946Z,36.31
2017-08-15T13:31:49.426Z,34.30
2017-08-15T13:34:16.913Z,32.64
2017-08-15T13:36:44.357Z,33.36
2017-08-15T13:39:11.816Z,34.72
2017-08-15T13:41:39.284Z,34.54
2017-08-15T13:44:06.741Z,35.81
2017-08-15T13:46:34.189Z,36.45
2017-08-15T13:49:01.662Z,35.65
2017-08-15T13:51:29.110Z,35.37
2017-08-15T13:53:56.578Z,36.46
2017-08-15T13:56:24.028Z,37.81
2017-08-15T13:58:51.499Z,38.59
2017-08-15T14:01:18.961Z,39.14
2017-08-15T14:03:46.433Z,38.64
2017-08-15T14:06:13.880Z,38.74
2017-08-15T14:08:41.354Z,36.68
2017-08-15T14:11:08.822Z,35.95
2017-08-15T14:13:36.274Z,35.96
2017-08-15T14:16:03.753Z,35.96
2017-08-15T14:18:31.197Z,37.83
2017-08-15T14:20:58.656Z,37.36
2017-08-15T14:23:26.142Z,36.28
2017-08-15T14:25:53.598Z,35.79
2017-08-15T14:28:21.055Z,34.72
2017-08-15T14:30:48.521Z,34.84
2017-08-15T14:33:15.985Z,33.87
2017-08-15T14:35:43.437Z,35.01
2017-08-15T14:38:10.908Z,36.46
2017-08-15T14:40:38.360Z,38.81
2017-08-15T14:43:05.839Z,37.37
2017-08-15T14:45:33.285Z,37.40
2017-08-15T14:48:00.739Z,38.27
2017-08-15T14:50:28.208Z,38.83
2017-08-15T14:52:55.668Z,39.74
2017-08-15T14:55:23.116Z,38.59
2017-08-15T14:57:50.589Z,37.17
2017-08-15T15:00:18.029Z,36.55
2017-08-15T15:02:45.497Z,37.99
2017-08-15T15:05:12.957Z,39.76
2017-08-15T15:07:40.402Z,38.05
2017-08-15T15:10:07.888Z,36.91
2017-08-15T15:12:35.340Z,36.14
2017-08-15T15:15:02.805Z,35.87
2017-08-15T15:17:30.269Z,35.78
2017-08-15T15:19:57.717Z,37.44
2017-08-15T15:22:25.185Z,36.63
2017-08-15T15:24:52.639Z,36.87
2017-08-15T15:27:20.101Z,37.64
2017-08-15T15:29:47.565Z,38.00
2017-08-15T15:32:15.017Z,36.58
2017-08-15T15:34:42.502Z,36.46
2017-08-15T15:37:09.966Z,38.57
2017-08-15T15:39:37.422Z,36.94
2017-08-15T15:42:04.905Z,37.78
2017-08-15T15:44:32.349Z,37.10
2017-08-15T15:46:59.825Z,36.83
2017-08-15T15:49:27.292Z,37.66
2017-08-15T15:51:54.741Z,38.00
2017-08-15T15:54:22.189Z,37.23
2017-08-15T15:56:49.662Z,38.09
2017-08-15T15:59:17.133Z,37.64
2017-08-15T16:01:44.581Z,37.82
2017-08-15T16:04:12.049Z,38.46
2017-08-15T16:06:39.497Z,38.59
2017-08-15T16:09:06.940Z,37.01
2017-08-15T16:11:34.413Z,37.10
2017-08-15T16:14:01.873Z,37.79
2017-08-15T16:16:29.319Z,35.95
2017-08-15T16:18:56.786Z,36.36
2017-08-15T16:21:24.253Z,36.71
2017-08-15T16:23:51.701Z,35.89
2017-08-15T16:26:19.170Z,34.77
2017-08-15T16:28:46.623Z,35.07
2017-08-15T16:31:14.080Z,35.28
2017-08-15T16:33:41.545Z,34.58
2017-08-15T16:36:09.010Z,34.61
2017-08-15T16:38:36.478Z,33.88
2017-08-15T16:41:03.929Z,32.47
2017-08-15T16:43:31.382Z,32.85
2017-08-15T16:45:58.868Z,33.60
2017-08-15T16:48:26.330Z,32.99
2017-08-15T16:50:53.770Z,33.76
2017-08-15T16:53:21.235Z,34.24
2017-08-15T16:55:48.682Z,34.67
2017-08-15T16:58:16.156Z,34.95
2017-08-15T17:00:43.604Z,35.17
2017-08-15T17:03:11.077Z,35.25
2017-08-15T17:05:38.518Z,34.96
2017-08-15T17:08:05.990Z,35.68
2017-08-15T17:10:33.449Z,35.79
2017-08-15T17:13:00.906Z,35.45
2017-08-15T17:15:28.387Z,35.70
2017-08-15T17:17:55.870Z,35.26
2017-08-15T17:20:25.512Z,35.13
2017-08-15T17:22:52.960Z,35.35
2017-08-15T17:25:20.409Z,34.74
2017-08-15T17:27:47.873Z,34.49
2017-08-15T17:30:15.328Z,34.27
2017-08-15T17:32:43.373Z,34.07
2017-08-15T17:35:10.825Z,33.79
2017-08-15T17:37:38.332Z,33.29
2017-08-15T17:40:05.783Z,33.02
2017-08-15T17:42:33.231Z,32.25
2017-08-15T17:45:00.709Z,31.30
2017-08-15T17:47:28.153Z,30.51
2017-08-15T17:49:55.769Z,30.39
2017-08-15T17:52:23.230Z,29.71
2017-08-15T17:54:50.682Z,29.38
2017-08-15T17:57:18.157Z,28.92
2017-08-15T17:59:45.635Z,28.65
2017-08-15T18:02:13.131Z,28.43
2017-08-15T18:04:40.594Z,28.22
2017-08-15T18:07:08.061Z,28.02
2017-08-15T18:09:35.507Z,27.62
2017-08-15T18:12:02.985Z,27.35
2017-08-15T18:14:30.439Z,27.30
2017-08-15T18:16:57.885Z,27.28
2017-08-15T18:19:25.357Z,26.99
2017-08-15T18:21:52.829Z,27.18
2017-08-15T18:24:20.293Z,26.92
2017-08-15T18:26:47.744Z,26.66
2017-08-15T18:29:15.196Z,26.05
2017-08-15T18:31:42.652Z,25.64
2017-08-15T18:34:10.129Z,25.94
2017-08-15T18:36:37.628Z,25.97
2017-08-15T18:39:05.093Z,25.71
2017-08-15T18:41:32.569Z,25.67
2017-08-15T18:44:00.027Z,25.39
2017-08-15T18:46:27.517Z,25.44
2017-08-15T18:48:54.973Z,25.54
2017-08-15T18:51:22.425Z,25.26
2017-08-15T18:53:49.909Z,25.46
2017-08-15T18:56:17.393Z,25.28
2017-08-15T18:58:44.858Z,24.96
2017-08-15T19:01:12.325Z,24.58
2017-08-15T19:03:39.792Z,24.30
2017-08-15T19:06:07.238Z,24.29
2017-08-15T19:08:34.717Z,24.31
2017-08-15T19:11:02.209Z,24.19
2017-08-15T19:13:29.662Z,24.08
2017-08-15T19:15:57.137Z,24.05
2017-08-15T19:18:24.622Z,23.89
2017-08-15T19:20:52.108Z,23.77
2017-08-15T19:23:19.595Z,23.53
2017-08-15T19:25:47.054Z,23.41
2017-08-15T19:28:14.889Z,23.30
2017-08-15T19:30:42.351Z,23.43
2017-08-15T19:33:09.850Z,23.49
2017-08-15T19:35:38.500Z,23.40
2017-08-15T19:38:05.969Z,23.30
2017-08-15T19:40:33.465Z,23.22
2017-08-15T19:43:00.930Z,23.20
2017-08-15T19:45:28.398Z,23.06
2017-08-15T19:47:55.890Z,23.06
2017-08-15T19:50:23.379Z,23.03
2017-08-15T19:52:50.853Z,23.05
2017-08-15T19:55:18.351Z,23.00
2017-08-15T19:57:45.840Z,22.86
2017-08-15T20:00:13.298Z,22.67
2017-08-15T20:02:40.810Z,22.67
2017-08-15T20:05:08.541Z,22.72
2017-08-15T20:07:36.055Z,22.77
2017-08-15T20:10:03.796Z,22.74
2017-08-15T20:12:31.520Z,22.73
2017-08-15T20:14:59.004Z,22.75
2017-08-15T20:17:26.560Z,22.65
2017-08-15T20:19:54.158Z,22.62
2017-08-15T20:22:21.913Z,22.47
2017-08-15T20:24:49.389Z,22.45
2017-08-15T20:27:16.842Z,22.39
2017-08-15T20:29:44.309Z,22.37
2017-08-15T20:32:11.768Z,22.49
2017-08-15T20:34:39.563Z,22.22
2017-08-15T20:37:07.070Z,22.44
2017-08-15T20:39:34.584Z,22.28
2017-08-15T20:42:02.113Z,22.33
2017-08-15T20:44:29.591Z,22.53
2017-08-15T20:46:57.088Z,22.48
2017-08-15T20:49:24.543Z,22.46
2017-08-15T20:51:52.903Z,22.28
2017-08-15T20:54:20.373Z,22.20
2017-08-15T20:56:47.888Z,22.13
2017-08-15T20:59:15.340Z,22.06
2017-08-15T21:01:42.811Z,22.00
2017-08-15T21:04:10.282Z,21.90
2017-08-15T21:06:38.057Z,21.82
2017-08-15T21:09:05.789Z,21.82
2017-08-15T21:11:33.287Z,21.81
2017-08-15T21:14:00.758Z,21.74
2017-08-15T21:16:28.248Z,21.72
2017-08-15T21:18:55.733Z,21.65
2017-08-15T21:21:23.178Z,21.58
2017-08-15T21:23:50.684Z,21.55
2017-08-15T21:26:18.137Z,21.49
2017-08-15T21:28:45.606Z,21.53
2017-08-15T21:31:13.114Z,21.73
2017-08-15T21:33:40.598Z,21.75
2017-08-15T21:36:08.073Z,21.54
2017-08-15T21:38:35.535Z,21.53
2017-08-15T21:41:03.040Z,21.19
2017-08-15T21:43:30.512Z,21.23
2017-08-15T21:45:58.024Z,21.39
2017-08-15T21:48:25.511Z,21.22
2017-08-15T21:50:52.967Z,21.13
2017-08-15T21:53:20.857Z,20.96
2017-08-15T21:55:48.324Z,20.84
2017-08-15T21:58:15.776Z,20.80
2017-08-15T22:00:58.145Z,20.83
2017-08-15T22:03:25.596Z,20.68
2017-08-15T22:05:53.073Z,20.58
2017-08-15T22:08:20.537Z,20.59
2017-08-15T22:10:47.972Z,20.48
2017-08-15T22:13:15.473Z,20.46
2017-08-15T22:15:42.950Z,20.44
2017-08-15T22:18:10.389Z,20.52
2017-08-15T22:20:37.871Z,20.36
2017-08-15T22:23:05.352Z,20.24
2017-08-15T22:25:32.793Z,20.13
2017-08-15T22:28:00.241Z,20.31
2017-08-15T22:30:27.713Z,20.33
2017-08-15T22:32:55.161Z,20.20
2017-08-15T22:35:22.628Z,20.12
2017-08-15T22:37:50.098Z,20.12
2017-08-15T22:40:17.555Z,19.94
2017-08-15T22:42:45.021Z,19.94
2017-08-15T22:45:12.491Z,19.84
2017-08-15T22:47:39.933Z,20.01
2017-08-15T22:50:07.410Z,19.91
2017-08-15T22:52:34.877Z,19.94
2017-08-15T22:55:02.331Z,19.87
2017-08-15T22:57:29.792Z,19.87
2017-08-15T22:59:57.253Z,19.84
2017-08-15T23:02:24.697Z,19.85
2017-08-15T23:04:52.168Z,19.88
2017-08-15T23:07:19.636Z,19.83
2017-08-15T23:09:47.085Z,19.58
2017-08-15T23:12:14.529Z,19.56
2017-08-15T23:14:42.009Z,19.61
2017-08-15T23:17:09.458Z,19.50
2017-08-15T23:19:36.910Z,19.54
2017-08-15T23:22:04.384Z,19.62
2017-08-15T23:24:31.837Z,19.58
2017-08-15T23:26:59.283Z,19.56
2017-08-15T23:29:26.747Z,19.62
2017-08-15T23:31:54.213Z,19.59
2017-08-15T23:34:21.664Z,19.40
2017-08-15T23:36:49.109Z,19.23
2017-08-15T23:39:16.573Z,19.19
2017-08-15T23:41:44.020Z,19.30
2017-08-15T23:44:11.516Z,19.35
2017-08-15T23:46:38.964Z,19.38
2017-08-15T23:49:06.409Z,19.30
2017-08-15T23:51:33.887Z,19.43
2017-08-15T23:54:01.343Z,19.21
2017-08-15T23:56:28.785Z,19.15
2017-08-15T23:58:56.307Z,19.14
